createdAt,value
2019-05-15T00:00:38.872Z,101100.56
2019-05-15T00:03:09.040Z,101092.17
2019-05-15T00:05:39.427Z,101099.70
2019-05-15T00:08:09.857Z,101097.22
2019-05-15T00:10:39.645Z,101096.52
2019-05-15T00:13:09.584Z,101094.23
2019-05-15T00:15:40.380Z,101105.02
2019-05-15T00:18:10.587Z,101094.33
2019-05-15T00:20:40.211Z,101092.90
2019-05-15T00:23:09.680Z,101092.36
2019-05-15T00:25:39.709Z,101091.12
2019-05-15T00:28:09.810Z,101083.96
2019-05-15T00:30:39.376Z,101083.20
2019-05-15T00:33:09.338Z,101084.50
2019-05-15T00:35:39.707Z,101077.75
2019-05-15T00:38:09.618Z,101076.41
2019-05-15T00:40:39.716Z,101078.77
2019-05-15T00:43:09.846Z,101075.73
2019-05-15T00:45:39.579Z,101072.30
2019-05-15T00:48:09.142Z,101075.52
2019-05-15T00:50:39.246Z,101060.77
2019-05-15T00:53:09.613Z,101067.90
2019-05-15T00:55:39.790Z,101065.03
2019-05-15T00:58:09.280Z,101067.98
2019-05-15T01:00:41.746Z,101066.56
2019-05-15T01:03:11.762Z,101070.18
2019-05-15T01:05:41.486Z,101056.84
2019-05-15T01:08:11.073Z,101060.08
2019-05-15T01:10:40.926Z,101053.97
2019-05-15T01:13:10.752Z,101052.16
2019-05-15T01:15:40.362Z,101054.27
2019-05-15T01:18:10.079Z,101056.46
2019-05-15T01:20:39.686Z,101051.51
2019-05-15T01:23:09.283Z,101044.93
2019-05-15T01:25:39.240Z,101042.36
2019-05-15T01:28:09.556Z,101042.17
2019-05-15T01:30:39.661Z,101035.12
2019-05-15T01:33:09.186Z,101036.27
2019-05-15T01:35:38.896Z,101031.05
2019-05-15T01:38:08.562Z,101032.28
2019-05-15T01:40:38.593Z,101028.56
2019-05-15T01:43:09.173Z,101027.52
2019-05-15T01:45:39.690Z,101024.85
2019-05-15T01:48:09.186Z,101033.41
2019-05-15T01:50:39.132Z,101025.31
2019-05-15T01:53:08.923Z,101025.40
2019-05-15T01:55:39.433Z,101026.95
2019-05-15T01:58:09.483Z,101023.69
2019-05-15T02:00:39.509Z,101024.55
2019-05-15T02:03:09.919Z,101026.95
2019-05-15T02:05:40.009Z,101018.56
2019-05-15T02:08:09.851Z,101018.18
2019-05-15T02:10:39.534Z,101015.68
2019-05-15T02:13:09.063Z,101019.68
2019-05-15T02:15:39.421Z,101018.75
2019-05-15T02:18:09.279Z,101009.02
2019-05-15T02:20:39.292Z,101003.77
2019-05-15T02:23:11.717Z,101008.72
2019-05-15T02:25:40.432Z,101001.97
2019-05-15T02:28:10.211Z,101005.48
2019-05-15T02:30:40.918Z,101001.59
2019-05-15T02:33:11.261Z,101007.00
2019-05-15T02:35:40.764Z,101000.34
2019-05-15T02:38:15.109Z,100994.80
2019-05-15T02:40:41.644Z,100993.74
2019-05-15T02:43:11.093Z,100994.61
2019-05-15T02:45:42.578Z,101001.84
2019-05-15T02:48:12.191Z,100993.16
2019-05-15T02:50:41.651Z,100988.08
2019-05-15T02:53:11.102Z,100991.12
2019-05-15T02:55:40.829Z,100989.59
2019-05-15T02:58:10.693Z,100991.30
2019-05-15T03:00:47.259Z,100988.17
2019-05-15T03:03:11.429Z,100991.48
2019-05-15T03:05:41.272Z,100989.86
2019-05-15T03:08:10.901Z,100992.99
2019-05-15T03:10:41.143Z,100993.67
2019-05-15T03:13:10.826Z,100992.73
2019-05-15T03:15:40.898Z,100989.12
2019-05-15T03:18:10.579Z,100979.97
2019-05-15T03:20:40.303Z,100993.59
2019-05-15T03:23:10.260Z,100986.36
2019-05-15T03:25:40.793Z,100983.13
2019-05-15T03:28:10.977Z,100986.38
2019-05-15T03:31:13.183Z,100991.66
2019-05-15T03:33:20.818Z,100988.02
2019-05-15T03:35:44.540Z,100991.55
2019-05-15T03:38:14.456Z,100977.92
2019-05-15T03:40:44.205Z,100976.98
2019-05-15T03:43:14.738Z,100980.12
2019-05-15T03:45:44.189Z,100983.66
2019-05-15T03:48:13.680Z,100982.23
2019-05-15T03:50:43.464Z,100975.30
2019-05-15T03:53:12.907Z,100979.02
2019-05-15T03:55:42.366Z,100981.20
2019-05-15T03:58:11.879Z,100981.87
2019-05-15T04:00:41.310Z,100981.20
2019-05-15T04:03:11.385Z,100977.78
2019-05-15T04:05:40.860Z,100983.66
2019-05-15T04:08:11.163Z,100981.95
2019-05-15T04:10:40.931Z,100980.06
2019-05-15T04:13:10.903Z,100973.38
2019-05-15T04:15:40.351Z,100974.15
2019-05-15T04:18:10.073Z,100977.77
2019-05-15T04:20:40.555Z,100974.53
2019-05-15T04:23:10.866Z,100984.44
2019-05-15T04:25:40.658Z,100982.73
2019-05-15T04:28:11.780Z,100979.94
2019-05-15T04:30:41.677Z,100979.65
2019-05-15T04:33:11.470Z,100983.94
2019-05-15T04:35:41.153Z,100990.42
2019-05-15T04:38:10.689Z,100993.85
2019-05-15T04:40:40.244Z,100996.05
2019-05-15T04:43:11.314Z,100991.09
2019-05-15T04:45:41.014Z,100992.23
2019-05-15T04:48:10.745Z,100996.05
2019-05-15T04:50:40.656Z,100990.42
2019-05-15T04:53:11.018Z,100992.01
2019-05-15T04:55:41.175Z,101000.91
2019-05-15T04:58:10.865Z,101000.62
2019-05-15T05:00:49.505Z,100999.66
2019-05-15T05:03:20.571Z,100995.46
2019-05-15T05:05:50.686Z,100993.87
2019-05-15T05:08:21.057Z,100999.70
2019-05-15T05:10:50.818Z,100996.94
2019-05-15T05:13:20.540Z,100991.87
2019-05-15T05:15:51.293Z,100996.18
2019-05-15T05:18:20.776Z,100997.04
2019-05-15T05:20:50.283Z,100997.89
2019-05-15T05:23:20.072Z,100994.13
2019-05-15T05:25:49.710Z,100998.28
2019-05-15T05:28:21.243Z,100989.97
2019-05-15T05:30:50.711Z,101000.75
2019-05-15T05:33:20.175Z,100997.42
2019-05-15T05:35:49.678Z,100993.98
2019-05-15T05:38:19.675Z,101002.17
2019-05-15T05:40:50.104Z,101005.33
2019-05-15T05:43:20.260Z,101006.09
2019-05-15T05:45:49.765Z,101000.17
2019-05-15T05:48:19.430Z,100996.48
2019-05-15T05:50:50.036Z,101008.67
2019-05-15T05:53:21.393Z,101004.97
2019-05-15T05:55:53.493Z,100998.95
2019-05-15T05:58:22.552Z,101012.97
2019-05-15T06:00:52.325Z,101003.63
2019-05-15T06:03:21.785Z,101002.28
2019-05-15T06:05:51.628Z,101002.66
2019-05-15T06:08:21.081Z,101008.32
2019-05-15T06:10:50.528Z,101006.92
2019-05-15T06:13:20.079Z,101007.81
2019-05-15T06:15:49.523Z,100998.55
2019-05-15T06:18:19.985Z,101012.27
2019-05-15T06:20:50.116Z,101006.55
2019-05-15T06:23:25.420Z,101010.94
2019-05-15T06:25:51.182Z,101015.36
2019-05-15T06:28:20.704Z,101006.31
2019-05-15T06:30:50.406Z,101004.90
2019-05-15T06:33:19.905Z,101005.12
2019-05-15T06:35:49.473Z,101008.75
2019-05-15T06:38:19.682Z,101009.77
2019-05-15T06:40:50.259Z,101009.31
2019-05-15T06:43:19.811Z,101007.95
2019-05-15T06:45:49.449Z,101012.19
2019-05-15T06:48:19.039Z,101013.82
2019-05-15T06:50:49.344Z,101014.46
2019-05-15T06:53:19.586Z,101017.09
2019-05-15T06:55:49.276Z,101016.63
2019-05-15T06:58:19.851Z,101016.71
2019-05-15T07:00:49.862Z,101019.36
2019-05-15T07:03:25.154Z,101011.41
2019-05-15T07:05:51.194Z,101013.76
2019-05-15T07:08:20.810Z,101009.11
2019-05-15T07:10:50.392Z,101004.61
2019-05-15T07:13:20.029Z,101011.37
2019-05-15T07:15:49.956Z,101010.45
2019-05-15T07:18:21.061Z,101010.34
2019-05-15T07:20:50.505Z,101000.08
2019-05-15T07:23:19.965Z,101003.53
2019-05-15T07:25:50.173Z,101006.75
2019-05-15T07:28:20.360Z,101007.08
2019-05-15T07:30:49.958Z,101017.36
2019-05-15T07:33:35.347Z,101020.46
2019-05-15T07:35:50.600Z,101011.40
2019-05-15T07:38:20.318Z,101012.66
2019-05-15T07:40:57.323Z,101013.52
2019-05-15T07:43:21.498Z,101013.17
2019-05-15T07:45:54.936Z,101008.02
2019-05-15T07:48:22.465Z,101013.63
2019-05-15T07:50:51.897Z,101015.30
2019-05-15T07:53:21.339Z,101013.11
2019-05-15T07:55:51.457Z,101011.06
2019-05-15T07:58:22.101Z,101010.42
2019-05-15T08:00:51.802Z,101012.25
2019-05-15T08:03:21.533Z,101016.63
2019-05-15T08:05:58.850Z,101009.20
2019-05-15T08:08:22.493Z,101012.53
2019-05-15T08:10:52.349Z,101003.66
2019-05-15T08:13:21.805Z,101003.66
2019-05-15T08:15:51.252Z,101002.09
2019-05-15T08:18:23.413Z,100997.69
2019-05-15T08:20:52.871Z,101003.91
2019-05-15T08:23:22.314Z,101005.25
2019-05-15T08:25:51.789Z,101006.03
2019-05-15T08:28:21.341Z,101010.70
2019-05-15T08:30:50.876Z,101003.55
2019-05-15T08:33:20.592Z,101001.83
2019-05-15T08:35:51.816Z,100999.13
2019-05-15T08:38:21.204Z,101005.65
2019-05-15T08:40:50.656Z,101003.23
2019-05-15T08:43:20.103Z,100995.70
2019-05-15T08:45:50.039Z,100998.32
2019-05-15T08:48:19.591Z,100991.26
2019-05-15T08:50:49.210Z,100995.95
2019-05-15T08:53:19.621Z,100997.73
2019-05-15T08:55:49.533Z,101000.86
2019-05-15T08:58:20.762Z,100993.93
2019-05-15T09:00:52.252Z,100995.88
2019-05-15T09:03:21.466Z,100995.11
2019-05-15T09:05:50.917Z,100991.02
2019-05-15T09:08:20.373Z,100993.20
2019-05-15T09:10:50.649Z,100989.95
2019-05-15T09:13:20.105Z,100999.33
2019-05-15T09:15:49.731Z,101003.45
2019-05-15T09:18:20.113Z,101000.20
2019-05-15T09:20:49.814Z,100992.38
2019-05-15T09:23:19.886Z,100996.97
2019-05-15T09:25:49.959Z,100988.84
2019-05-15T09:28:19.745Z,100991.00
2019-05-15T09:30:49.915Z,100989.30
2019-05-15T09:33:20.272Z,100987.23
2019-05-15T09:35:49.878Z,100989.28
2019-05-15T09:38:19.328Z,100984.33
2019-05-15T09:40:50.834Z,100974.83
2019-05-15T09:43:19.930Z,100976.75
2019-05-15T09:45:49.642Z,100975.69
2019-05-15T09:48:20.927Z,100979.12
2019-05-15T09:50:50.399Z,100976.37
2019-05-15T09:53:19.854Z,100978.02
2019-05-15T09:55:49.956Z,100975.83
2019-05-15T09:58:20.948Z,100966.91
2019-05-15T10:00:53.000Z,100964.50
2019-05-15T10:03:22.330Z,100964.57
2019-05-15T10:05:51.787Z,100957.11
2019-05-15T10:08:21.771Z,100958.26
2019-05-15T10:10:51.393Z,100957.34
2019-05-15T10:13:20.826Z,100957.57
2019-05-15T10:15:51.252Z,100957.48
2019-05-15T10:18:20.773Z,100952.52
2019-05-15T10:20:50.229Z,100951.67
2019-05-15T10:23:20.079Z,100952.20
2019-05-15T10:25:49.615Z,100952.78
2019-05-15T10:28:19.626Z,100948.69
2019-05-15T10:30:50.026Z,100946.03
2019-05-15T10:33:20.458Z,100947.22
2019-05-15T10:35:50.479Z,100941.82
2019-05-15T10:38:20.396Z,100947.73
2019-05-15T10:41:03.908Z,100939.70
2019-05-15T10:43:21.226Z,100937.80
2019-05-15T10:45:54.182Z,100942.67
2019-05-15T10:48:21.800Z,100932.84
2019-05-15T10:50:51.614Z,100935.78
2019-05-15T10:53:21.528Z,100935.21
2019-05-15T10:55:50.958Z,100934.78
2019-05-15T10:58:22.149Z,100935.63
2019-05-15T11:00:52.002Z,100931.30
2019-05-15T11:03:21.452Z,100930.39
2019-05-15T11:05:50.906Z,100931.92
2019-05-15T11:08:20.359Z,100922.41
2019-05-15T11:10:50.106Z,100918.32
2019-05-15T11:13:19.701Z,100918.22
2019-05-15T11:15:50.121Z,100911.30
2019-05-15T11:18:22.155Z,100904.38
2019-05-15T11:20:50.986Z,100906.42
2019-05-15T11:23:20.596Z,100902.11
2019-05-15T11:25:50.005Z,100904.00
2019-05-15T11:28:19.525Z,100896.70
2019-05-15T11:30:49.416Z,100897.07
2019-05-15T11:33:19.370Z,100894.48
2019-05-15T11:36:00.961Z,100895.35
2019-05-15T11:38:20.248Z,100897.64
2019-05-15T11:40:49.694Z,100894.06
2019-05-15T11:43:19.910Z,100894.06
2019-05-15T11:45:49.500Z,100888.56
2019-05-15T11:48:20.465Z,100896.24
2019-05-15T11:50:50.316Z,100894.73
2019-05-15T11:53:19.774Z,100893.05
2019-05-15T11:55:49.228Z,100900.69
2019-05-15T11:58:25.392Z,100898.34
2019-05-15T12:00:49.829Z,100898.42
2019-05-15T12:03:19.395Z,100900.13
2019-05-15T12:05:48.826Z,100898.98
2019-05-15T12:08:19.959Z,100900.16
2019-05-15T12:10:49.668Z,100897.75
2019-05-15T12:13:19.282Z,100891.38
2019-05-15T12:15:48.882Z,100885.23
2019-05-15T12:18:18.321Z,100888.98
2019-05-15T12:20:48.640Z,100888.73
2019-05-15T12:23:18.477Z,100886.01
2019-05-15T12:25:48.845Z,100884.13
2019-05-15T12:28:19.907Z,100885.39
2019-05-15T12:30:49.408Z,100888.67
2019-05-15T12:33:19.022Z,100884.56
2019-05-15T12:35:50.732Z,100884.92
2019-05-15T12:38:20.898Z,100879.95
2019-05-15T13:01:00.032Z,100868.84
2019-05-15T13:03:29.568Z,100861.95
2019-05-15T13:05:59.027Z,100863.77
2019-05-15T13:08:29.252Z,100865.70
2019-05-15T13:10:58.976Z,100858.23
2019-05-15T13:13:28.572Z,100853.63
2019-05-15T13:15:59.045Z,100856.55
2019-05-15T13:18:28.842Z,100855.02
2019-05-15T13:20:59.417Z,100850.06
2019-05-15T13:23:29.254Z,100847.25
2019-05-15T13:25:59.413Z,100844.95
2019-05-15T13:28:29.383Z,100835.48
2019-05-15T13:30:59.675Z,100831.52
2019-05-15T13:33:29.254Z,100834.83
2019-05-15T13:35:58.744Z,100826.30
2019-05-15T13:38:28.861Z,100835.31
2019-05-15T13:40:59.083Z,100828.61
2019-05-15T13:43:29.174Z,100831.46
2019-05-15T13:45:59.524Z,100831.02
2019-05-15T13:48:29.776Z,100828.19
2019-05-15T13:50:59.463Z,100822.48
2019-05-15T13:53:29.281Z,100823.46
2019-05-15T13:55:58.733Z,100818.08
2019-05-15T13:58:28.499Z,100820.06
2019-05-15T14:00:58.806Z,100808.75
2019-05-15T14:03:28.828Z,100803.48
2019-05-15T14:05:58.666Z,100797.27
2019-05-15T14:08:28.770Z,100800.70
2019-05-15T14:10:58.604Z,100796.91
2019-05-15T14:13:28.694Z,100799.48
2019-05-15T14:15:58.531Z,100797.27
2019-05-15T14:18:28.663Z,100798.61
2019-05-15T14:20:58.683Z,100796.79
2019-05-15T14:23:29.461Z,100800.55
2019-05-15T14:26:13.048Z,100793.36
2019-05-15T14:28:30.274Z,100796.78
2019-05-15T14:31:00.097Z,100788.11
2019-05-15T14:33:29.884Z,100787.41
2019-05-15T14:35:59.351Z,100781.92
2019-05-15T14:38:29.178Z,100780.58
2019-05-15T14:40:59.191Z,100780.31
2019-05-15T14:43:29.453Z,100781.66
2019-05-15T14:45:59.253Z,100780.07
2019-05-15T14:48:28.695Z,100773.03
2019-05-15T14:50:58.571Z,100775.19
2019-05-15T14:53:29.373Z,100772.87
2019-05-15T14:56:00.295Z,100768.48
2019-05-15T14:58:30.101Z,100770.19
2019-05-15T15:01:03.270Z,100767.27
2019-05-15T15:03:30.712Z,100768.15
2019-05-15T15:06:00.175Z,100769.48
2019-05-15T15:08:32.469Z,100771.16
2019-05-15T15:11:00.788Z,100766.80
2019-05-15T15:13:30.913Z,100765.95
2019-05-15T15:16:00.395Z,100765.70
2019-05-15T15:18:29.842Z,100765.70
2019-05-15T15:20:59.303Z,100762.41
2019-05-15T15:23:28.743Z,100761.19
2019-05-15T15:25:58.482Z,100756.44
2019-05-15T15:28:28.207Z,100759.00
2019-05-15T15:30:58.249Z,100755.59
2019-05-15T15:33:28.892Z,100756.78
2019-05-15T15:35:58.543Z,100753.84
2019-05-15T15:38:40.068Z,100748.36
2019-05-15T15:41:00.447Z,100751.31
2019-05-15T15:43:30.163Z,100750.59
2019-05-15T15:45:59.903Z,100750.09
2019-05-15T15:48:29.392Z,100741.56
2019-05-15T15:50:58.952Z,100742.75
2019-05-15T15:53:28.816Z,100734.83
2019-05-15T15:55:58.685Z,100732.14
2019-05-15T15:58:29.103Z,100732.71
2019-05-15T16:00:58.613Z,100728.20
2019-05-15T16:03:28.785Z,100724.03
2019-05-15T16:05:58.337Z,100722.58
2019-05-15T16:08:28.590Z,100720.98
2019-05-15T16:10:58.951Z,100724.84
2019-05-15T16:13:29.190Z,100722.64
2019-05-15T16:15:59.090Z,100722.38
2019-05-15T16:18:29.074Z,100724.09
2019-05-15T16:20:58.630Z,100713.84
2019-05-15T16:23:28.466Z,100717.12
2019-05-15T16:26:01.005Z,100723.60
2019-05-15T16:28:29.716Z,100717.02
2019-05-15T16:30:59.212Z,100718.47
2019-05-15T16:33:28.729Z,100714.33
2019-05-15T16:35:58.657Z,100705.77
2019-05-15T16:38:28.519Z,100704.79
2019-05-15T16:40:58.495Z,100703.52
2019-05-15T16:43:28.792Z,100705.34
2019-05-15T16:45:58.945Z,100700.82
2019-05-15T16:48:29.508Z,100702.40
2019-05-15T16:50:59.098Z,100700.59
2019-05-15T16:53:29.077Z,100703.16
2019-05-15T16:55:58.848Z,100696.62
2019-05-15T16:58:29.628Z,100697.38
2019-05-15T17:00:59.445Z,100698.17
2019-05-15T17:03:29.135Z,100698.34
2019-05-15T17:05:58.929Z,100695.19
2019-05-15T17:08:32.054Z,100694.58
2019-05-15T17:11:00.172Z,100698.85
2019-05-15T17:13:29.632Z,100693.03
2019-05-15T17:15:59.094Z,100698.27
2019-05-15T17:18:28.548Z,100698.16
2019-05-15T17:20:59.016Z,100701.32
2019-05-15T17:23:28.901Z,100695.72
2019-05-15T17:25:58.617Z,100698.52
2019-05-15T17:28:28.979Z,100703.77
2019-05-15T17:30:58.913Z,100699.77
2019-05-15T17:33:29.056Z,100697.45
2019-05-15T17:35:58.541Z,100692.70
2019-05-15T17:38:28.676Z,100692.94
2019-05-15T17:40:58.496Z,100700.12
2019-05-15T17:43:28.721Z,100690.98
2019-05-15T17:45:58.628Z,100692.58
2019-05-15T17:48:28.952Z,100696.59
2019-05-15T17:50:59.469Z,100690.50
2019-05-15T17:53:29.586Z,100687.57
2019-05-15T17:55:59.335Z,100688.55
2019-05-15T17:58:28.987Z,100686.71
2019-05-15T18:00:59.427Z,100684.52
2019-05-15T18:03:29.553Z,100684.27
2019-05-15T18:05:59.379Z,100680.14
2019-05-15T18:08:29.253Z,100687.44
2019-05-15T18:10:59.232Z,100683.33
2019-05-15T18:13:28.917Z,100680.03
2019-05-15T18:16:03.241Z,100675.39
2019-05-15T18:18:29.609Z,100681.20
2019-05-15T18:20:59.067Z,100672.19
2019-05-15T18:23:28.536Z,100672.42
2019-05-15T18:25:58.668Z,100668.41
2019-05-15T18:28:28.131Z,100663.44
2019-05-15T18:30:58.783Z,100662.47
2019-05-15T18:33:28.416Z,100664.53
2019-05-15T18:35:58.275Z,100665.38
2019-05-15T18:38:28.237Z,100662.22
2019-05-15T18:40:58.398Z,100662.56
2019-05-15T18:43:28.424Z,100658.93
2019-05-15T18:45:58.599Z,100660.63
2019-05-15T18:48:28.837Z,100662.81
2019-05-15T18:50:58.912Z,100658.05
2019-05-15T18:53:28.537Z,100662.56
2019-05-15T18:55:58.512Z,100662.20
2019-05-15T18:58:28.156Z,100660.25
2019-05-15T19:00:58.372Z,100661.83
2019-05-15T19:03:28.102Z,100664.27
2019-05-15T19:05:58.479Z,100664.64
2019-05-15T19:08:28.356Z,100660.01
2019-05-15T19:10:58.613Z,100655.38
2019-05-15T19:13:28.404Z,100659.02
2019-05-15T19:15:58.213Z,100652.31
2019-05-15T19:18:28.023Z,100654.38
2019-05-15T19:20:58.615Z,100660.48
2019-05-15T19:23:28.599Z,100656.69
2019-05-15T19:25:58.411Z,100658.98
2019-05-15T19:28:28.521Z,100660.69
2019-05-15T19:30:58.732Z,100650.47
2019-05-15T19:33:37.092Z,100652.17
2019-05-15T19:36:02.122Z,100647.80
2019-05-15T19:38:30.795Z,100648.41
2019-05-15T19:41:02.966Z,100645.49
2019-05-15T19:43:32.148Z,100641.11
2019-05-15T19:46:01.615Z,100644.14
2019-05-15T19:48:31.179Z,100637.92
2019-05-15T19:51:00.647Z,100635.64
2019-05-15T19:53:30.559Z,100636.48
2019-05-15T19:56:00.487Z,100636.82
2019-05-15T19:58:30.132Z,100637.66
2019-05-15T20:00:59.942Z,100644.72
2019-05-15T20:03:29.549Z,100640.08
2019-05-15T20:06:01.399Z,100644.46
2019-05-15T20:08:30.194Z,100638.38
2019-05-15T20:10:59.642Z,100634.47
2019-05-15T20:13:29.601Z,100636.81
2019-05-15T20:15:59.032Z,100629.73
2019-05-15T20:18:28.500Z,100629.38
2019-05-15T20:20:58.490Z,100620.38
2019-05-15T20:23:28.860Z,100623.17
2019-05-15T20:25:58.499Z,100618.92
2019-05-15T20:28:28.580Z,100615.25
2019-05-15T20:30:58.927Z,100611.23
2019-05-15T20:33:28.701Z,100608.08
2019-05-15T20:35:58.860Z,100603.34
2019-05-15T20:38:28.850Z,100603.69
2019-05-15T20:40:59.754Z,100600.41
2019-05-15T20:43:29.460Z,100602.61
2019-05-15T20:45:59.295Z,100598.59
2019-05-15T20:48:29.079Z,100597.63
2019-05-15T20:50:59.101Z,100600.17
2019-05-15T20:53:28.865Z,100598.00
2019-05-15T20:55:59.005Z,100591.17
2019-05-15T20:58:28.570Z,100584.59
2019-05-15T21:00:59.156Z,100582.63
2019-05-15T21:03:28.820Z,100581.41
2019-05-15T21:06:00.756Z,100576.68
2019-05-15T21:08:29.772Z,100575.11
2019-05-15T21:10:59.320Z,100572.41
2019-05-15T21:13:29.892Z,100571.81
2019-05-15T21:15:59.456Z,100563.03
2019-05-15T21:18:29.249Z,100558.51
2019-05-15T21:20:58.725Z,100560.48
2019-05-15T21:23:28.639Z,100553.41
2019-05-15T21:25:59.047Z,100554.91
2019-05-15T21:28:30.102Z,100544.67
2019-05-15T21:30:59.658Z,100550.03
2019-05-15T21:33:29.787Z,100550.28
2019-05-15T21:35:59.307Z,100552.34
2019-05-15T21:38:28.774Z,100543.83
2019-05-15T21:40:58.726Z,100536.40
2019-05-15T21:43:28.328Z,100533.59
2019-05-15T21:45:59.122Z,100534.80
2019-05-15T21:48:28.934Z,100532.75
2019-05-15T21:50:58.608Z,100536.40
2019-05-15T21:53:28.844Z,100531.53
2019-05-15T21:55:59.000Z,100536.52
2019-05-15T21:58:28.619Z,100526.16
2019-05-15T22:01:19.613Z,100522.53
2019-05-15T22:03:49.421Z,100520.60
2019-05-15T22:06:18.878Z,100517.56
2019-05-15T22:08:48.328Z,100515.62
2019-05-15T22:11:18.746Z,100508.66
2019-05-15T22:13:49.307Z,100515.23
2019-05-15T22:16:19.250Z,100510.73
2019-05-15T22:18:48.934Z,100509.30
2019-05-15T22:21:18.716Z,100502.20
2019-05-15T22:23:48.229Z,100503.55
2019-05-15T22:26:18.502Z,100497.83
2019-05-15T22:28:49.101Z,100491.75
2019-05-15T22:31:18.541Z,100498.95
2019-05-15T22:33:48.356Z,100497.00
2019-05-15T22:36:18.849Z,100490.67
2019-05-15T22:38:50.389Z,100486.52
2019-05-15T22:41:19.904Z,100483.59
2019-05-15T22:43:49.403Z,100482.89
2019-05-15T22:46:18.877Z,100480.33
2019-05-15T22:48:48.716Z,100478.60
2019-05-15T22:51:18.548Z,100475.95
2019-05-15T22:53:48.879Z,100472.66
2019-05-15T22:56:18.515Z,100465.48
2019-05-15T22:58:48.181Z,100464.76
2019-05-15T23:01:18.836Z,100460.14
2019-05-15T23:03:48.557Z,100454.27
2019-05-15T23:06:18.195Z,100459.26
2019-05-15T23:08:48.948Z,100454.52
2019-05-15T23:11:18.881Z,100454.88
2019-05-15T23:13:48.693Z,100455.12
2019-05-15T23:16:18.768Z,100449.43
2019-05-15T23:18:48.833Z,100454.91
2019-05-15T23:21:19.081Z,100450.28
2019-05-15T23:23:48.962Z,100444.67
2019-05-15T23:26:18.417Z,100432.27
2019-05-15T23:28:48.210Z,100435.89
2019-05-15T23:31:18.858Z,100433.09
2019-05-15T23:33:48.716Z,100434.31
2019-05-15T23:36:18.669Z,100437.63
2019-05-15T23:38:48.463Z,100429.11
2019-05-15T23:41:18.892Z,100430.81
2019-05-15T23:43:48.542Z,100426.54
2019-05-15T23:46:18.592Z,100423.98
2019-05-15T23:48:48.636Z,100415.83
2019-05-15T23:51:19.141Z,100418.15
2019-05-15T23:53:48.650Z,100415.11
2019-05-15T23:56:19.007Z,100405.38
2019-05-15T23:58:48.673Z,100400.78
